sensor_id;sensor_type;location;lat;lon;timestamp;P1;durP1;ratioP1;P2;durP2;ratioP2
3307;SDS011;1666;48.898;9.182;2023-01-23T00:00:45;27.35;;;15.18;;
3307;SDS011;1666;48.898;9.182;2023-01-23T00:03:16;26.70;;;14.75;;
3307;SDS011;1666;48.898;9.182;2023-01-23T00:05:54;27.67;;;15.93;;
3307;SDS011;1666;48.898;9.182;2023-01-23T00:08:25;25.88;;;15.63;;
3307;SDS011;1666;48.898;9.182;2023-01-23T00:10:55;25.63;;;14.45;;
3307;SDS011;1666;48.898;9.182;2023-01-23T00:13:25;27.38;;;16.42;;
3307;SDS011;1666;48.898;9.182;2023-01-23T00:15:58;26.52;;;15.25;;
3307;SDS011;1666;48.898;9.182;2023-01-23T00:18:31;28.67;;;16.60;;
3307;SDS011;1666;48.898;9.182;2023-01-23T00:21:05;32.08;;;16.30;;
3307;SDS011;1666;48.898;9.182;2023-01-23T00:26:06;30.58;;;16.90;;
3307;SDS011;1666;48.898;9.182;2023-01-23T00:28:41;32.00;;;17.42;;
3307;SDS011;1666;48.898;9.182;2023-01-23T00:31:14;30.05;;;16.30;;
3307;SDS011;1666;48.898;9.182;2023-01-23T00:33:45;30.17;;;16.08;;
3307;SDS011;1666;48.898;9.182;2023-01-23T00:36:15;30.50;;;16.20;;
3307;SDS011;1666;48.898;9.182;2023-01-23T00:38:45;32.38;;;16.58;;
3307;SDS011;1666;48.898;9.182;2023-01-23T00:41:15;32.13;;;16.42;;
3307;SDS011;1666;48.898;9.182;2023-01-23T00:43:45;30.92;;;16.25;;
3307;SDS011;1666;48.898;9.182;2023-01-23T00:46:20;30.88;;;17.17;;
3307;SDS011;1666;48.898;9.182;2023-01-23T00:48:50;27.88;;;15.35;;
3307;SDS011;1666;48.898;9.182;2023-01-23T00:51:20;31.60;;;16.25;;
3307;SDS011;1666;48.898;9.182;2023-01-23T00:53:50;32.28;;;16.80;;
3307;SDS011;1666;48.898;9.182;2023-01-23T00:56:20;29.40;;;16.63;;
3307;SDS011;1666;48.898;9.182;2023-01-23T00:58:50;29.55;;;16.80;;
3307;SDS011;1666;48.898;9.182;2023-01-23T01:01:23;31.85;;;16.23;;
3307;SDS011;1666;48.898;9.182;2023-01-23T01:03:54;31.17;;;15.95;;
3307;SDS011;1666;48.898;9.182;2023-01-23T01:06:24;27.98;;;16.92;;
3307;SDS011;1666;48.898;9.182;2023-01-23T01:08:55;30.27;;;16.67;;
3307;SDS011;1666;48.898;9.182;2023-01-23T01:11:25;31.65;;;16.25;;
3307;SDS011;1666;48.898;9.182;2023-01-23T01:13:55;26.95;;;15.38;;
3307;SDS011;1666;48.898;9.182;2023-01-23T01:16:29;26.83;;;15.52;;
3307;SDS011;1666;48.898;9.182;2023-01-23T01:18:59;30.10;;;16.13;;
3307;SDS011;1666;48.898;9.182;2023-01-23T01:21:29;29.67;;;16.10;;
3307;SDS011;1666;48.898;9.182;2023-01-23T01:23:59;29.88;;;16.63;;
3307;SDS011;1666;48.898;9.182;2023-01-23T01:26:29;30.67;;;16.33;;
3307;SDS011;1666;48.898;9.182;2023-01-23T01:28:59;29.35;;;16.33;;
3307;SDS011;1666;48.898;9.182;2023-01-23T01:31:31;29.75;;;16.88;;
3307;SDS011;1666;48.898;9.182;2023-01-23T01:34:03;29.00;;;15.95;;
3307;SDS011;1666;48.898;9.182;2023-01-23T01:36:35;30.08;;;16.77;;
3307;SDS011;1666;48.898;9.182;2023-01-23T01:39:07;27.10;;;15.52;;
3307;SDS011;1666;48.898;9.182;2023-01-23T01:41:40;28.35;;;15.77;;
3307;SDS011;1666;48.898;9.182;2023-01-23T01:44:12;28.52;;;16.58;;
3307;SDS011;1666;48.898;9.182;2023-01-23T01:46:48;30.90;;;17.52;;
3307;SDS011;1666;48.898;9.182;2023-01-23T01:49:19;28.33;;;16.33;;
3307;SDS011;1666;48.898;9.182;2023-01-23T01:51:52;30.70;;;18.90;;
3307;SDS011;1666;48.898;9.182;2023-01-23T01:54:26;28.70;;;16.63;;
3307;SDS011;1666;48.898;9.182;2023-01-23T01:57:01;28.50;;;15.38;;
3307;SDS011;1666;48.898;9.182;2023-01-23T01:59:36;28.65;;;16.77;;
3307;SDS011;1666;48.898;9.182;2023-01-23T02:02:11;28.52;;;16.33;;
3307;SDS011;1666;48.898;9.182;2023-01-23T02:04:46;28.83;;;15.00;;
3307;SDS011;1666;48.898;9.182;2023-01-23T02:07:19;26.73;;;14.47;;
3307;SDS011;1666;48.898;9.182;2023-01-23T02:09:50;29.00;;;15.90;;
3307;SDS011;1666;48.898;9.182;2023-01-23T02:12:22;29.35;;;15.55;;
3307;SDS011;1666;48.898;9.182;2023-01-23T02:14:53;32.05;;;16.42;;
3307;SDS011;1666;48.898;9.182;2023-01-23T02:17:26;26.33;;;15.35;;
3307;SDS011;1666;48.898;9.182;2023-01-23T02:20:04;26.35;;;15.32;;
3307;SDS011;1666;48.898;9.182;2023-01-23T02:22:40;28.65;;;14.65;;
3307;SDS011;1666;48.898;9.182;2023-01-23T02:25:19;28.27;;;15.18;;
3307;SDS011;1666;48.898;9.182;2023-01-23T02:27:57;26.15;;;13.98;;
3307;SDS011;1666;48.898;9.182;2023-01-23T02:30:27;27.95;;;14.73;;
3307;SDS011;1666;48.898;9.182;2023-01-23T02:33:06;28.45;;;14.88;;
3307;SDS011;1666;48.898;9.182;2023-01-23T02:35:37;25.48;;;14.20;;
3307;SDS011;1666;48.898;9.182;2023-01-23T02:38:07;26.88;;;14.30;;
3307;SDS011;1666;48.898;9.182;2023-01-23T02:40:39;24.75;;;13.65;;
3307;SDS011;1666;48.898;9.182;2023-01-23T02:43:16;26.25;;;13.57;;
3307;SDS011;1666;48.898;9.182;2023-01-23T02:45:48;23.80;;;13.27;;
3307;SDS011;1666;48.898;9.182;2023-01-23T02:48:19;25.63;;;14.30;;
3307;SDS011;1666;48.898;9.182;2023-01-23T02:50:49;23.00;;;13.35;;
3307;SDS011;1666;48.898;9.182;2023-01-23T02:53:19;25.95;;;14.10;;
3307;SDS011;1666;48.898;9.182;2023-01-23T02:55:49;27.67;;;13.98;;
3307;SDS011;1666;48.898;9.182;2023-01-23T02:58:24;24.27;;;13.73;;
3307;SDS011;1666;48.898;9.182;2023-01-23T03:01:07;23.77;;;13.07;;
3307;SDS011;1666;48.898;9.182;2023-01-23T03:03:36;26.05;;;13.38;;
3307;SDS011;1666;48.898;9.182;2023-01-23T03:06:08;23.40;;;14.05;;
3307;SDS011;1666;48.898;9.182;2023-01-23T03:08:38;25.42;;;13.95;;
3307;SDS011;1666;48.898;9.182;2023-01-23T03:11:16;26.75;;;13.82;;
3307;SDS011;1666;48.898;9.182;2023-01-23T03:13:49;22.95;;;13.85;;
3307;SDS011;1666;48.898;9.182;2023-01-23T03:16:19;25.48;;;13.98;;
3307;SDS011;1666;48.898;9.182;2023-01-23T03:18:49;25.92;;;13.98;;
3307;SDS011;1666;48.898;9.182;2023-01-23T03:21:20;22.25;;;12.98;;
3307;SDS011;1666;48.898;9.182;2023-01-23T03:23:50;24.92;;;13.27;;
3307;SDS011;1666;48.898;9.182;2023-01-23T03:26:20;21.75;;;12.95;;
3307;SDS011;1666;48.898;9.182;2023-01-23T03:28:52;25.40;;;13.63;;
3307;SDS011;1666;48.898;9.182;2023-01-23T03:34:04;23.70;;;13.57;;
3307;SDS011;1666;48.898;9.182;2023-01-23T03:36:34;25.23;;;13.25;;
3307;SDS011;1666;48.898;9.182;2023-01-23T03:39:06;23.90;;;13.63;;
3307;SDS011;1666;48.898;9.182;2023-01-23T03:41:49;20.25;;;12.50;;
3307;SDS011;1666;48.898;9.182;2023-01-23T03:44:21;24.42;;;12.95;;
3307;SDS011;1666;48.898;9.182;2023-01-23T03:46:51;25.30;;;13.27;;
3307;SDS011;1666;48.898;9.182;2023-01-23T03:49:21;26.15;;;13.52;;
3307;SDS011;1666;48.898;9.182;2023-01-23T03:51:51;28.75;;;14.13;;
3307;SDS011;1666;48.898;9.182;2023-01-23T03:54:20;24.88;;;13.98;;
3307;SDS011;1666;48.898;9.182;2023-01-23T03:56:51;26.15;;;14.18;;
3307;SDS011;1666;48.898;9.182;2023-01-23T03:59:23;24.65;;;14.20;;
3307;SDS011;1666;48.898;9.182;2023-01-23T04:01:53;26.15;;;12.85;;
3307;SDS011;1666;48.898;9.182;2023-01-23T04:04:23;24.77;;;14.02;;
3307;SDS011;1666;48.898;9.182;2023-01-23T04:06:53;28.85;;;14.82;;
3307;SDS011;1666;48.898;9.182;2023-01-23T04:09:23;25.58;;;14.18;;
3307;SDS011;1666;48.898;9.182;2023-01-23T04:11:53;24.83;;;13.70;;
3307;SDS011;1666;48.898;9.182;2023-01-23T04:14:26;24.85;;;13.50;;
3307;SDS011;1666;48.898;9.182;2023-01-23T04:17:03;27.60;;;14.52;;
3307;SDS011;1666;48.898;9.182;2023-01-23T04:19:33;24.52;;;13.60;;
3307;SDS011;1666;48.898;9.182;2023-01-23T04:22:03;27.92;;;14.88;;
3307;SDS011;1666;48.898;9.182;2023-01-23T04:24:35;23.33;;;13.05;;
3307;SDS011;1666;48.898;9.182;2023-01-23T04:27:05;25.70;;;13.93;;
3307;SDS011;1666;48.898;9.182;2023-01-23T04:29:37;24.65;;;13.95;;
3307;SDS011;1666;48.898;9.182;2023-01-23T04:32:07;25.90;;;14.10;;
3307;SDS011;1666;48.898;9.182;2023-01-23T04:34:37;22.13;;;12.80;;
3307;SDS011;1666;48.898;9.182;2023-01-23T04:37:07;23.95;;;13.32;;
3307;SDS011;1666;48.898;9.182;2023-01-23T04:39:36;24.50;;;13.48;;
3307;SDS011;1666;48.898;9.182;2023-01-23T04:42:06;25.02;;;13.70;;
3307;SDS011;1666;48.898;9.182;2023-01-23T04:44:39;22.98;;;13.55;;
3307;SDS011;1666;48.898;9.182;2023-01-23T04:47:09;23.65;;;13.57;;
3307;SDS011;1666;48.898;9.182;2023-01-23T04:49:39;25.67;;;13.82;;
3307;SDS011;1666;48.898;9.182;2023-01-23T04:52:09;28.23;;;13.63;;
3307;SDS011;1666;48.898;9.182;2023-01-23T04:54:39;26.05;;;13.57;;
3307;SDS011;1666;48.898;9.182;2023-01-23T04:57:09;25.45;;;13.68;;
3307;SDS011;1666;48.898;9.182;2023-01-23T04:59:41;26.23;;;13.25;;
3307;SDS011;1666;48.898;9.182;2023-01-23T05:02:11;23.35;;;12.90;;
3307;SDS011;1666;48.898;9.182;2023-01-23T05:04:41;24.58;;;13.48;;
3307;SDS011;1666;48.898;9.182;2023-01-23T05:07:11;24.60;;;13.07;;
3307;SDS011;1666;48.898;9.182;2023-01-23T05:09:41;24.45;;;13.05;;
3307;SDS011;1666;48.898;9.182;2023-01-23T05:12:11;28.35;;;13.98;;
3307;SDS011;1666;48.898;9.182;2023-01-23T05:14:43;26.65;;;13.27;;
3307;SDS011;1666;48.898;9.182;2023-01-23T05:17:13;22.73;;;12.48;;
3307;SDS011;1666;48.898;9.182;2023-01-23T05:19:43;23.13;;;13.15;;
3307;SDS011;1666;48.898;9.182;2023-01-23T05:22:13;23.75;;;12.30;;
3307;SDS011;1666;48.898;9.182;2023-01-23T05:24:43;26.13;;;13.73;;
3307;SDS011;1666;48.898;9.182;2023-01-23T05:27:13;25.27;;;12.85;;
3307;SDS011;1666;48.898;9.182;2023-01-23T05:29:45;27.60;;;13.18;;
3307;SDS011;1666;48.898;9.182;2023-01-23T05:32:15;26.20;;;13.45;;
3307;SDS011;1666;48.898;9.182;2023-01-23T05:34:45;26.08;;;13.88;;
3307;SDS011;1666;48.898;9.182;2023-01-23T05:37:15;22.65;;;12.77;;
3307;SDS011;1666;48.898;9.182;2023-01-23T05:39:45;27.63;;;14.73;;
3307;SDS011;1666;48.898;9.182;2023-01-23T05:42:15;26.67;;;12.98;;
3307;SDS011;1666;48.898;9.182;2023-01-23T05:44:47;25.58;;;12.52;;
3307;SDS011;1666;48.898;9.182;2023-01-23T05:47:17;26.27;;;13.60;;
3307;SDS011;1666;48.898;9.182;2023-01-23T05:49:47;25.63;;;13.55;;
3307;SDS011;1666;48.898;9.182;2023-01-23T05:52:17;26.63;;;13.77;;
3307;SDS011;1666;48.898;9.182;2023-01-23T05:54:47;24.42;;;13.32;;
3307;SDS011;1666;48.898;9.182;2023-01-23T05:57:17;26.00;;;13.15;;
3307;SDS011;1666;48.898;9.182;2023-01-23T05:59:50;24.50;;;13.15;;
3307;SDS011;1666;48.898;9.182;2023-01-23T06:02:20;26.67;;;13.30;;
3307;SDS011;1666;48.898;9.182;2023-01-23T06:04:49;24.13;;;13.75;;
3307;SDS011;1666;48.898;9.182;2023-01-23T06:07:21;24.33;;;13.52;;
3307;SDS011;1666;48.898;9.182;2023-01-23T06:09:51;26.63;;;13.05;;
3307;SDS011;1666;48.898;9.182;2023-01-23T06:12:20;28.30;;;14.20;;
3307;SDS011;1666;48.898;9.182;2023-01-23T06:14:54;24.02;;;13.40;;
3307;SDS011;1666;48.898;9.182;2023-01-23T06:17:24;25.52;;;12.73;;
3307;SDS011;1666;48.898;9.182;2023-01-23T06:19:54;24.88;;;12.50;;
3307;SDS011;1666;48.898;9.182;2023-01-23T06:22:24;26.00;;;13.02;;
3307;SDS011;1666;48.898;9.182;2023-01-23T06:24:56;27.23;;;13.80;;
3307;SDS011;1666;48.898;9.182;2023-01-23T06:27:26;22.35;;;12.45;;
3307;SDS011;1666;48.898;9.182;2023-01-23T06:29:59;26.48;;;13.13;;
3307;SDS011;1666;48.898;9.182;2023-01-23T06:32:28;24.90;;;12.40;;
3307;SDS011;1666;48.898;9.182;2023-01-23T06:34:58;26.50;;;13.80;;
3307;SDS011;1666;48.898;9.182;2023-01-23T06:37:28;26.65;;;13.73;;
3307;SDS011;1666;48.898;9.182;2023-01-23T06:39:58;23.17;;;12.70;;
3307;SDS011;1666;48.898;9.182;2023-01-23T06:42:28;29.67;;;14.10;;
3307;SDS011;1666;48.898;9.182;2023-01-23T06:45:00;29.13;;;14.52;;
3307;SDS011;1666;48.898;9.182;2023-01-23T06:47:30;25.95;;;14.23;;
3307;SDS011;1666;48.898;9.182;2023-01-23T06:50:00;26.52;;;14.13;;
3307;SDS011;1666;48.898;9.182;2023-01-23T06:52:30;30.77;;;14.98;;
3307;SDS011;1666;48.898;9.182;2023-01-23T06:55:00;31.23;;;15.07;;
3307;SDS011;1666;48.898;9.182;2023-01-23T06:57:30;27.00;;;14.18;;
3307;SDS011;1666;48.898;9.182;2023-01-23T07:00:02;30.88;;;14.43;;
3307;SDS011;1666;48.898;9.182;2023-01-23T07:02:33;34.33;;;16.48;;
3307;SDS011;1666;48.898;9.182;2023-01-23T07:05:03;28.30;;;14.43;;
3307;SDS011;1666;48.898;9.182;2023-01-23T07:07:33;32.95;;;15.55;;
3307;SDS011;1666;48.898;9.182;2023-01-23T07:10:04;27.05;;;14.85;;
3307;SDS011;1666;48.898;9.182;2023-01-23T07:12:34;29.80;;;14.25;;
3307;SDS011;1666;48.898;9.182;2023-01-23T07:15:07;31.88;;;15.23;;
3307;SDS011;1666;48.898;9.182;2023-01-23T07:17:38;28.60;;;14.30;;
3307;SDS011;1666;48.898;9.182;2023-01-23T07:20:08;27.13;;;14.23;;
3307;SDS011;1666;48.898;9.182;2023-01-23T07:22:39;26.83;;;14.02;;
3307;SDS011;1666;48.898;9.182;2023-01-23T07:25:11;26.67;;;14.25;;
3307;SDS011;1666;48.898;9.182;2023-01-23T07:27:41;28.48;;;14.25;;
3307;SDS011;1666;48.898;9.182;2023-01-23T07:30:14;37.50;;;15.10;;
3307;SDS011;1666;48.898;9.182;2023-01-23T07:32:45;27.55;;;14.85;;
3307;SDS011;1666;48.898;9.182;2023-01-23T07:35:15;30.23;;;15.48;;
3307;SDS011;1666;48.898;9.182;2023-01-23T07:37:45;29.23;;;15.45;;
3307;SDS011;1666;48.898;9.182;2023-01-23T07:40:16;30.25;;;15.18;;
3307;SDS011;1666;48.898;9.182;2023-01-23T07:42:47;33.08;;;15.23;;
3307;SDS011;1666;48.898;9.182;2023-01-23T07:45:19;31.52;;;14.82;;
3307;SDS011;1666;48.898;9.182;2023-01-23T07:47:49;29.08;;;16.17;;
3307;SDS011;1666;48.898;9.182;2023-01-23T07:50:19;30.63;;;15.48;;
3307;SDS011;1666;48.898;9.182;2023-01-23T07:52:49;29.08;;;14.93;;
3307;SDS011;1666;48.898;9.182;2023-01-23T07:55:24;32.45;;;15.27;;
3307;SDS011;1666;48.898;9.182;2023-01-23T07:57:54;31.73;;;15.60;;
3307;SDS011;1666;48.898;9.182;2023-01-23T08:00:27;26.60;;;14.48;;
3307;SDS011;1666;48.898;9.182;2023-01-23T08:02:57;29.35;;;15.00;;
3307;SDS011;1666;48.898;9.182;2023-01-23T08:05:28;29.92;;;15.15;;
3307;SDS011;1666;48.898;9.182;2023-01-23T08:07:57;30.83;;;15.48;;
3307;SDS011;1666;48.898;9.182;2023-01-23T08:10:39;30.48;;;14.27;;
3307;SDS011;1666;48.898;9.182;2023-01-23T08:13:09;31.42;;;15.23;;
3307;SDS011;1666;48.898;9.182;2023-01-23T08:15:41;29.17;;;14.48;;
3307;SDS011;1666;48.898;9.182;2023-01-23T08:18:11;33.28;;;13.70;;
3307;SDS011;1666;48.898;9.182;2023-01-23T08:20:41;30.23;;;14.15;;
3307;SDS011;1666;48.898;9.182;2023-01-23T08:23:11;29.05;;;14.95;;
3307;SDS011;1666;48.898;9.182;2023-01-23T08:25:41;29.02;;;15.77;;
3307;SDS011;1666;48.898;9.182;2023-01-23T08:28:11;30.58;;;15.90;;
3307;SDS011;1666;48.898;9.182;2023-01-23T08:30:43;26.02;;;13.95;;
3307;SDS011;1666;48.898;9.182;2023-01-23T08:33:14;29.65;;;15.32;;
3307;SDS011;1666;48.898;9.182;2023-01-23T08:35:47;32.45;;;16.08;;
3307;SDS011;1666;48.898;9.182;2023-01-23T08:38:21;30.23;;;14.98;;
3307;SDS011;1666;48.898;9.182;2023-01-23T08:40:52;30.00;;;14.85;;
3307;SDS011;1666;48.898;9.182;2023-01-23T08:43:22;28.50;;;14.48;;
3307;SDS011;1666;48.898;9.182;2023-01-23T08:45:55;30.23;;;14.98;;
3307;SDS011;1666;48.898;9.182;2023-01-23T08:48:26;27.70;;;14.50;;
3307;SDS011;1666;48.898;9.182;2023-01-23T08:50:57;25.77;;;13.63;;
3307;SDS011;1666;48.898;9.182;2023-01-23T08:53:28;27.77;;;13.95;;
3307;SDS011;1666;48.898;9.182;2023-01-23T08:56:00;29.23;;;14.63;;
3307;SDS011;1666;48.898;9.182;2023-01-23T08:58:30;22.88;;;12.85;;
3307;SDS011;1666;48.898;9.182;2023-01-23T09:01:09;22.10;;;12.80;;
3307;SDS011;1666;48.898;9.182;2023-01-23T09:03:39;19.58;;;11.85;;
3307;SDS011;1666;48.898;9.182;2023-01-23T09:06:10;22.38;;;12.48;;
3307;SDS011;1666;48.898;9.182;2023-01-23T09:08:40;23.92;;;13.38;;
3307;SDS011;1666;48.898;9.182;2023-01-23T09:11:10;23.95;;;12.02;;
3307;SDS011;1666;48.898;9.182;2023-01-23T09:13:42;24.98;;;13.68;;
3307;SDS011;1666;48.898;9.182;2023-01-23T09:16:15;22.80;;;11.73;;
3307;SDS011;1666;48.898;9.182;2023-01-23T09:18:45;20.33;;;11.63;;
3307;SDS011;1666;48.898;9.182;2023-01-23T09:21:15;22.98;;;11.43;;
3307;SDS011;1666;48.898;9.182;2023-01-23T09:23:45;20.30;;;11.05;;
3307;SDS011;1666;48.898;9.182;2023-01-23T09:26:15;20.15;;;10.55;;
3307;SDS011;1666;48.898;9.182;2023-01-23T09:28:45;20.70;;;10.32;;
3307;SDS011;1666;48.898;9.182;2023-01-23T09:31:18;16.75;;;8.93;;
3307;SDS011;1666;48.898;9.182;2023-01-23T09:33:49;21.45;;;11.38;;
3307;SDS011;1666;48.898;9.182;2023-01-23T09:36:19;16.00;;;9.02;;
3307;SDS011;1666;48.898;9.182;2023-01-23T09:39:07;16.98;;;9.95;;
3307;SDS011;1666;48.898;9.182;2023-01-23T09:41:37;20.15;;;9.50;;
3307;SDS011;1666;48.898;9.182;2023-01-23T09:44:09;15.30;;;8.82;;
3307;SDS011;1666;48.898;9.182;2023-01-23T09:46:46;17.65;;;10.25;;
3307;SDS011;1666;48.898;9.182;2023-01-23T09:49:21;15.85;;;9.25;;
3307;SDS011;1666;48.898;9.182;2023-01-23T09:51:55;17.08;;;9.30;;
3307;SDS011;1666;48.898;9.182;2023-01-23T09:54:31;17.58;;;10.07;;
3307;SDS011;1666;48.898;9.182;2023-01-23T09:57:07;16.77;;;9.57;;
3307;SDS011;1666;48.898;9.182;2023-01-23T09:59:44;16.55;;;10.30;;
3307;SDS011;1666;48.898;9.182;2023-01-23T10:02:28;20.33;;;9.82;;
3307;SDS011;1666;48.898;9.182;2023-01-23T10:04:58;19.75;;;10.63;;
3307;SDS011;1666;48.898;9.182;2023-01-23T10:07:33;19.08;;;9.82;;
3307;SDS011;1666;48.898;9.182;2023-01-23T10:13:16;19.48;;;11.85;;
3307;SDS011;1666;48.898;9.182;2023-01-23T10:16:11;20.10;;;10.38;;
3307;SDS011;1666;48.898;9.182;2023-01-23T10:19:05;24.58;;;13.13;;
3307;SDS011;1666;48.898;9.182;2023-01-23T10:21:44;23.42;;;12.02;;
3307;SDS011;1666;48.898;9.182;2023-01-23T10:24:24;16.67;;;9.27;;
3307;SDS011;1666;48.898;9.182;2023-01-23T10:27:14;18.13;;;10.27;;
3307;SDS011;1666;48.898;9.182;2023-01-23T10:29:47;28.17;;;14.77;;
3307;SDS011;1666;48.898;9.182;2023-01-23T10:32:22;17.88;;;10.75;;
3307;SDS011;1666;48.898;9.182;2023-01-23T10:34:59;16.60;;;10.32;;
3307;SDS011;1666;48.898;9.182;2023-01-23T10:37:35;18.67;;;10.52;;
3307;SDS011;1666;48.898;9.182;2023-01-23T10:40:11;16.70;;;9.85;;
3307;SDS011;1666;48.898;9.182;2023-01-23T10:42:42;17.50;;;9.98;;
3307;SDS011;1666;48.898;9.182;2023-01-23T10:45:14;17.52;;;10.68;;
3307;SDS011;1666;48.898;9.182;2023-01-23T10:47:47;18.85;;;11.27;;
3307;SDS011;1666;48.898;9.182;2023-01-23T10:50:32;18.52;;;10.40;;
3307;SDS011;1666;48.898;9.182;2023-01-23T10:53:05;16.75;;;8.88;;
3307;SDS011;1666;48.898;9.182;2023-01-23T10:55:36;17.08;;;9.43;;
3307;SDS011;1666;48.898;9.182;2023-01-23T10:58:20;18.42;;;10.60;;
3307;SDS011;1666;48.898;9.182;2023-01-23T11:00:57;17.63;;;9.55;;
3307;SDS011;1666;48.898;9.182;2023-01-23T11:03:29;21.00;;;10.75;;
3307;SDS011;1666;48.898;9.182;2023-01-23T11:06:04;20.70;;;11.88;;
3307;SDS011;1666;48.898;9.182;2023-01-23T11:08:37;21.35;;;11.68;;
3307;SDS011;1666;48.898;9.182;2023-01-23T11:13:49;18.25;;;10.25;;
3307;SDS011;1666;48.898;9.182;2023-01-23T11:16:30;17.48;;;10.73;;
3307;SDS011;1666;48.898;9.182;2023-01-23T11:19:07;18.70;;;10.73;;
3307;SDS011;1666;48.898;9.182;2023-01-23T11:21:53;18.92;;;10.80;;
3307;SDS011;1666;48.898;9.182;2023-01-23T11:24:30;20.17;;;11.40;;
3307;SDS011;1666;48.898;9.182;2023-01-23T11:27:14;20.77;;;10.85;;
3307;SDS011;1666;48.898;9.182;2023-01-23T11:32:56;18.00;;;11.05;;
3307;SDS011;1666;48.898;9.182;2023-01-23T11:35:39;20.85;;;10.60;;
3307;SDS011;1666;48.898;9.182;2023-01-23T11:38:29;17.85;;;9.30;;
3307;SDS011;1666;48.898;9.182;2023-01-23T11:41:13;18.73;;;10.50;;
3307;SDS011;1666;48.898;9.182;2023-01-23T11:43:43;16.20;;;10.13;;
3307;SDS011;1666;48.898;9.182;2023-01-23T11:46:26;21.70;;;10.77;;
3307;SDS011;1666;48.898;9.182;2023-01-23T11:49:10;20.45;;;11.15;;
3307;SDS011;1666;48.898;9.182;2023-01-23T11:51:52;18.08;;;9.60;;
3307;SDS011;1666;48.898;9.182;2023-01-23T11:54:54;15.32;;;8.75;;
3307;SDS011;1666;48.898;9.182;2023-01-23T11:57:38;21.13;;;11.35;;
3307;SDS011;1666;48.898;9.182;2023-01-23T12:00:23;19.52;;;9.48;;
3307;SDS011;1666;48.898;9.182;2023-01-23T12:03:15;19.92;;;10.55;;
3307;SDS011;1666;48.898;9.182;2023-01-23T12:09:01;18.60;;;11.35;;
3307;SDS011;1666;48.898;9.182;2023-01-23T12:11:44;20.08;;;10.25;;
3307;SDS011;1666;48.898;9.182;2023-01-23T12:14:25;19.77;;;10.30;;
3307;SDS011;1666;48.898;9.182;2023-01-23T12:17:02;18.90;;;10.45;;
3307;SDS011;1666;48.898;9.182;2023-01-23T12:19:43;20.63;;;11.20;;
3307;SDS011;1666;48.898;9.182;2023-01-23T12:22:29;20.67;;;11.07;;
3307;SDS011;1666;48.898;9.182;2023-01-23T12:25:13;20.17;;;10.50;;
3307;SDS011;1666;48.898;9.182;2023-01-23T12:27:54;25.25;;;10.75;;
3307;SDS011;1666;48.898;9.182;2023-01-23T12:30:41;19.05;;;10.35;;
3307;SDS011;1666;48.898;9.182;2023-01-23T12:33:45;18.63;;;10.55;;
3307;SDS011;1666;48.898;9.182;2023-01-23T12:36:32;16.55;;;9.88;;
3307;SDS011;1666;48.898;9.182;2023-01-23T12:42:35;23.95;;;10.50;;
3307;SDS011;1666;48.898;9.182;2023-01-23T12:45:15;17.38;;;9.15;;
3307;SDS011;1666;48.898;9.182;2023-01-23T12:47:55;18.17;;;10.15;;
3307;SDS011;1666;48.898;9.182;2023-01-23T12:50:34;23.58;;;10.63;;
3307;SDS011;1666;48.898;9.182;2023-01-23T12:53:10;17.33;;;9.98;;
3307;SDS011;1666;48.898;9.182;2023-01-23T12:55:42;18.77;;;9.85;;
3307;SDS011;1666;48.898;9.182;2023-01-23T12:58:22;17.92;;;9.35;;
3307;SDS011;1666;48.898;9.182;2023-01-23T13:01:03;18.55;;;10.35;;
3307;SDS011;1666;48.898;9.182;2023-01-23T13:04:00;19.58;;;10.18;;
3307;SDS011;1666;48.898;9.182;2023-01-23T13:06:44;20.35;;;10.38;;
3307;SDS011;1666;48.898;9.182;2023-01-23T13:09:28;17.83;;;10.07;;
3307;SDS011;1666;48.898;9.182;2023-01-23T13:12:06;18.35;;;9.95;;
3307;SDS011;1666;48.898;9.182;2023-01-23T13:14:48;16.95;;;10.10;;
3307;SDS011;1666;48.898;9.182;2023-01-23T13:17:43;19.08;;;9.93;;
3307;SDS011;1666;48.898;9.182;2023-01-23T13:20:20;15.98;;;9.13;;
3307;SDS011;1666;48.898;9.182;2023-01-23T13:28:59;19.80;;;9.43;;
3307;SDS011;1666;48.898;9.182;2023-01-23T13:31:37;20.83;;;11.20;;
3307;SDS011;1666;48.898;9.182;2023-01-23T13:40:21;21.30;;;10.43;;
3307;SDS011;1666;48.898;9.182;2023-01-23T13:42:51;16.13;;;8.75;;
3307;SDS011;1666;48.898;9.182;2023-01-23T13:45:22;20.25;;;9.85;;
3307;SDS011;1666;48.898;9.182;2023-01-23T13:51:31;17.92;;;10.13;;
3307;SDS011;1666;48.898;9.182;2023-01-23T13:54:17;17.38;;;9.20;;
3307;SDS011;1666;48.898;9.182;2023-01-23T13:57:17;20.08;;;8.68;;
3307;SDS011;1666;48.898;9.182;2023-01-23T14:00:02;17.55;;;10.10;;
3307;SDS011;1666;48.898;9.182;2023-01-23T14:02:49;17.60;;;8.55;;
3307;SDS011;1666;48.898;9.182;2023-01-23T14:06:01;15.52;;;8.23;;
3307;SDS011;1666;48.898;9.182;2023-01-23T14:12:15;15.40;;;8.88;;
3307;SDS011;1666;48.898;9.182;2023-01-23T14:15:17;15.48;;;8.68;;
3307;SDS011;1666;48.898;9.182;2023-01-23T14:18:18;15.32;;;8.80;;
3307;SDS011;1666;48.898;9.182;2023-01-23T14:21:15;15.10;;;8.20;;
3307;SDS011;1666;48.898;9.182;2023-01-23T14:23:53;13.77;;;8.60;;
3307;SDS011;1666;48.898;9.182;2023-01-23T14:26:27;14.88;;;8.85;;
3307;SDS011;1666;48.898;9.182;2023-01-23T14:29:01;17.17;;;9.85;;
3307;SDS011;1666;48.898;9.182;2023-01-23T14:31:34;16.80;;;9.38;;
3307;SDS011;1666;48.898;9.182;2023-01-23T14:34:05;17.80;;;9.73;;
3307;SDS011;1666;48.898;9.182;2023-01-23T14:36:44;15.93;;;8.95;;
3307;SDS011;1666;48.898;9.182;2023-01-23T14:39:17;15.82;;;9.35;;
3307;SDS011;1666;48.898;9.182;2023-01-23T14:41:49;20.05;;;10.75;;
3307;SDS011;1666;48.898;9.182;2023-01-23T14:44:33;19.50;;;10.82;;
3307;SDS011;1666;48.898;9.182;2023-01-23T14:47:09;17.63;;;9.77;;
3307;SDS011;1666;48.898;9.182;2023-01-23T14:49:43;19.90;;;11.18;;
3307;SDS011;1666;48.898;9.182;2023-01-23T14:52:19;17.60;;;9.60;;
3307;SDS011;1666;48.898;9.182;2023-01-23T14:54:51;17.13;;;9.38;;
3307;SDS011;1666;48.898;9.182;2023-01-23T14:57:24;18.30;;;10.75;;
3307;SDS011;1666;48.898;9.182;2023-01-23T14:59:58;15.60;;;8.63;;
3307;SDS011;1666;48.898;9.182;2023-01-23T15:02:31;18.90;;;9.63;;
3307;SDS011;1666;48.898;9.182;2023-01-23T15:05:05;19.55;;;11.30;;
3307;SDS011;1666;48.898;9.182;2023-01-23T15:07:41;15.85;;;9.15;;
3307;SDS011;1666;48.898;9.182;2023-01-23T15:10:13;14.63;;;8.98;;
3307;SDS011;1666;48.898;9.182;2023-01-23T15:12:51;17.42;;;10.20;;
3307;SDS011;1666;48.898;9.182;2023-01-23T15:15:25;14.68;;;8.43;;
3307;SDS011;1666;48.898;9.182;2023-01-23T15:17:56;14.03;;;8.67;;
3307;SDS011;1666;48.898;9.182;2023-01-23T15:20:28;15.30;;;9.48;;
3307;SDS011;1666;48.898;9.182;2023-01-23T15:28:52;18.25;;;10.73;;
3307;SDS011;1666;48.898;9.182;2023-01-23T15:31:29;16.40;;;9.20;;
3307;SDS011;1666;48.898;9.182;2023-01-23T15:34:16;19.58;;;10.43;;
3307;SDS011;1666;48.898;9.182;2023-01-23T15:36:50;16.10;;;9.68;;
3307;SDS011;1666;48.898;9.182;2023-01-23T15:39:23;15.20;;;9.40;;
3307;SDS011;1666;48.898;9.182;2023-01-23T15:41:56;17.85;;;10.07;;
3307;SDS011;1666;48.898;9.182;2023-01-23T15:44:28;16.83;;;10.05;;
3307;SDS011;1666;48.898;9.182;2023-01-23T15:47:02;16.70;;;9.48;;
3307;SDS011;1666;48.898;9.182;2023-01-23T15:49:32;16.02;;;9.45;;
3307;SDS011;1666;48.898;9.182;2023-01-23T15:52:13;19.85;;;10.27;;
3307;SDS011;1666;48.898;9.182;2023-01-23T15:54:47;21.42;;;11.32;;
3307;SDS011;1666;48.898;9.182;2023-01-23T15:57:18;19.02;;;11.20;;
3307;SDS011;1666;48.898;9.182;2023-01-23T15:59:48;23.73;;;12.20;;
3307;SDS011;1666;48.898;9.182;2023-01-23T16:02:21;19.63;;;11.93;;
3307;SDS011;1666;48.898;9.182;2023-01-23T16:04:58;20.92;;;10.82;;
3307;SDS011;1666;48.898;9.182;2023-01-23T16:07:29;20.13;;;10.68;;
3307;SDS011;1666;48.898;9.182;2023-01-23T16:10:02;22.88;;;12.27;;
3307;SDS011;1666;48.898;9.182;2023-01-23T16:12:33;22.27;;;11.98;;
3307;SDS011;1666;48.898;9.182;2023-01-23T16:15:09;23.65;;;12.73;;
3307;SDS011;1666;48.898;9.182;2023-01-23T16:17:45;22.33;;;11.32;;